createdAt,value
2023-04-15T00:02:40.663Z,67.23
2023-04-15T00:07:40.579Z,67.24
2023-04-15T00:12:40.312Z,67.25
2023-04-15T00:17:40.206Z,67.39
2023-04-15T00:22:39.835Z,67.42
2023-04-15T00:27:39.981Z,67.39
2023-04-15T00:32:39.147Z,67.51
2023-04-15T00:37:39.254Z,67.49
2023-04-15T00:42:40.580Z,67.48
2023-04-15T00:47:43.226Z,67.50
2023-04-15T00:52:45.902Z,67.72
2023-04-15T00:57:46.299Z,68.61
2023-04-15T01:02:46.408Z,69.18
2023-04-15T01:07:46.243Z,69.22
2023-04-15T01:12:45.724Z,69.39
2023-04-15T01:17:45.678Z,69.56
2023-04-15T01:22:47.177Z,69.69
2023-04-15T01:27:47.918Z,70.10
2023-04-15T01:32:48.438Z,70.67
2023-04-15T01:37:48.841Z,71.21
2023-04-15T01:42:49.714Z,71.53
2023-04-15T01:47:50.534Z,71.61
2023-04-15T01:52:49.779Z,71.64
2023-04-15T01:57:50.435Z,71.75
2023-04-15T02:02:50.753Z,71.89
2023-04-15T02:07:49.717Z,72.15
2023-04-15T02:12:48.648Z,72.61
2023-04-15T02:17:51.258Z,73.04
2023-04-15T02:22:51.137Z,73.36
2023-04-15T02:27:50.411Z,73.54
2023-04-15T02:32:50.852Z,73.79
2023-04-15T02:37:49.730Z,74.05
2023-04-15T02:42:50.183Z,74.14
2023-04-15T02:47:50.252Z,74.29
2023-04-15T02:52:49.746Z,74.39
2023-04-15T02:57:48.864Z,74.44
2023-04-15T03:02:52.626Z,74.56
2023-04-15T03:08:11.880Z,74.61
2023-04-15T03:13:11.928Z,74.74
2023-04-15T03:18:11.953Z,74.88
2023-04-15T03:23:12.706Z,75.01
2023-04-15T03:28:12.645Z,75.08
2023-04-15T03:33:12.640Z,75.13
2023-04-15T03:38:13.692Z,75.19
2023-04-15T03:43:12.931Z,75.27
2023-04-15T03:48:17.624Z,75.31
2023-04-15T03:53:17.795Z,75.32
2023-04-15T03:58:16.818Z,75.34
2023-04-15T04:03:15.848Z,75.40
2023-04-15T04:08:16.631Z,75.43
2023-04-15T04:13:15.909Z,75.41
2023-04-15T04:18:15.170Z,75.46
2023-04-15T04:23:14.905Z,75.57
2023-04-15T04:28:14.297Z,75.76
2023-04-15T04:33:14.343Z,76.03
2023-04-15T04:38:13.784Z,76.29
2023-04-15T04:43:13.463Z,76.46
2023-04-15T04:48:11.976Z,76.68
2023-04-15T04:53:11.258Z,76.95
2023-04-15T04:58:10.205Z,77.18
2023-04-15T05:03:09.838Z,77.50
2023-04-15T05:08:09.421Z,77.72
2023-04-15T05:13:08.050Z,77.96
2023-04-15T05:18:06.778Z,78.13
2023-04-15T05:23:06.300Z,78.26
2023-04-15T05:28:05.874Z,78.36
2023-04-15T05:33:05.575Z,78.51
2023-04-15T05:38:04.450Z,78.72
2023-04-15T05:43:03.569Z,78.86
2023-04-15T05:48:03.334Z,78.98
2023-04-15T05:53:02.371Z,79.09
2023-04-15T05:58:01.979Z,79.19
2023-04-15T06:03:02.281Z,79.25
2023-04-15T06:08:01.587Z,79.21
2023-04-15T06:13:00.464Z,79.27
2023-04-15T06:17:59.832Z,79.35
2023-04-15T06:22:58.845Z,79.40
2023-04-15T06:27:57.728Z,79.39
2023-04-15T06:32:58.147Z,79.53
2023-04-15T06:37:57.786Z,79.64
2023-04-15T06:42:56.741Z,79.70
2023-04-15T06:47:56.295Z,79.70
2023-04-15T06:52:57.516Z,79.75
2023-04-15T06:57:57.117Z,79.88
2023-04-15T07:02:57.127Z,79.90
2023-04-15T07:07:56.448Z,80.00
2023-04-15T07:12:56.249Z,80.03
2023-04-15T07:17:56.406Z,80.12
2023-04-15T07:22:55.569Z,80.25
2023-04-15T07:27:56.506Z,80.39
2023-04-15T07:32:55.589Z,80.38
2023-04-15T07:37:55.124Z,80.40
2023-04-15T07:42:54.620Z,80.50
2023-04-15T07:47:57.668Z,80.37
2023-04-15T07:52:57.631Z,80.31
2023-04-15T07:57:56.747Z,80.29
2023-04-15T08:02:57.659Z,80.21
2023-04-15T08:07:57.501Z,80.15
2023-04-15T08:12:57.707Z,80.10
2023-04-15T08:17:58.188Z,80.08
2023-04-15T08:22:58.414Z,80.07
2023-04-15T08:28:07.362Z,80.14
2023-04-15T08:33:07.123Z,80.17
2023-04-15T08:38:07.415Z,80.04
2023-04-15T08:43:09.539Z,80.00
2023-04-15T08:48:11.656Z,79.90
2023-04-15T08:53:11.107Z,79.59
2023-04-15T08:58:11.496Z,79.60
2023-04-15T09:03:12.428Z,79.46
2023-04-15T09:08:12.236Z,79.30
2023-04-15T09:13:13.230Z,79.48
2023-04-15T09:18:14.955Z,79.51
2023-04-15T09:23:20.757Z,79.50
2023-04-15T09:28:28.162Z,79.38
2023-04-15T09:33:28.286Z,79.14
2023-04-15T09:38:27.607Z,78.65
2023-04-15T09:43:41.076Z,78.64
2023-04-15T09:48:41.731Z,78.78
2023-04-15T09:53:41.499Z,78.94
2023-04-15T09:58:42.559Z,78.79
2023-04-15T10:03:47.275Z,78.82
2023-04-15T10:08:47.911Z,78.97
2023-04-15T10:13:50.721Z,78.89
2023-04-15T10:18:56.756Z,78.56
2023-04-15T10:23:57.280Z,78.42
2023-04-15T10:28:58.973Z,78.33
2023-04-15T10:34:04.478Z,78.22
2023-04-15T10:39:04.205Z,78.11
2023-04-15T10:44:07.254Z,78.07
2023-04-15T10:49:14.648Z,78.13
2023-04-15T10:54:33.923Z,78.23
2023-04-15T10:59:34.374Z,78.18
2023-04-15T11:04:59.109Z,78.10
2023-04-15T11:09:58.592Z,77.95
2023-04-15T11:14:58.781Z,77.76
2023-04-15T11:19:58.526Z,77.53
2023-04-15T11:24:59.685Z,77.36
2023-04-15T11:29:58.860Z,77.36
2023-04-15T11:34:58.688Z,77.14
2023-04-15T11:39:58.957Z,76.93
2023-04-15T11:45:12.517Z,76.85
2023-04-15T11:50:24.650Z,77.05
2023-04-15T11:55:24.412Z,76.98
2023-04-15T12:00:25.077Z,76.69
2023-04-15T12:05:25.099Z,76.28
2023-04-15T12:10:27.603Z,76.11
2023-04-15T12:15:29.334Z,76.13
2023-04-15T12:20:32.388Z,76.20
2023-04-15T12:25:39.777Z,76.31
2023-04-15T12:30:38.551Z,76.29
2023-04-15T12:35:38.331Z,76.23
2023-04-15T12:40:37.478Z,76.56
2023-04-15T12:45:36.841Z,76.95
2023-04-15T12:50:36.842Z,77.14
2023-04-15T12:55:36.713Z,77.04
2023-04-15T13:00:38.471Z,76.95
2023-04-15T13:05:39.416Z,77.21
2023-04-15T13:10:39.443Z,77.43
2023-04-15T13:15:38.994Z,77.82
2023-04-15T13:20:37.796Z,77.96
2023-04-15T13:25:36.831Z,77.71
2023-04-15T13:30:35.905Z,77.38
2023-04-15T13:35:37.078Z,77.00
2023-04-15T13:40:36.698Z,76.89
2023-04-15T13:45:36.514Z,76.82
2023-04-15T13:50:35.556Z,77.18
2023-04-15T13:55:35.218Z,76.97
2023-04-15T14:00:34.124Z,76.29
2023-04-15T14:05:33.834Z,75.68
2023-04-15T14:10:33.136Z,75.33
2023-04-15T14:15:32.179Z,75.11
2023-04-15T14:20:31.789Z,75.13
2023-04-15T14:25:33.999Z,74.76
2023-04-15T14:30:36.362Z,74.39
2023-04-15T14:35:35.474Z,73.98
2023-04-15T14:40:34.660Z,73.88
2023-04-15T14:45:35.011Z,73.89
2023-04-15T14:50:34.339Z,73.43
2023-04-15T14:55:35.217Z,72.79
2023-04-15T15:00:34.523Z,72.32
2023-04-15T15:05:33.796Z,71.66
2023-04-15T15:10:46.624Z,70.97
2023-04-15T15:15:50.953Z,70.75
2023-04-15T15:20:49.715Z,70.33
2023-04-15T15:25:49.601Z,70.12
2023-04-15T15:30:48.278Z,69.99
2023-04-15T15:35:48.200Z,69.75
2023-04-15T15:40:47.159Z,69.49
2023-04-15T15:45:46.970Z,68.96
2023-04-15T15:50:46.553Z,69.14
2023-04-15T15:55:46.199Z,69.05
2023-04-15T16:00:46.430Z,68.93
2023-04-15T16:05:47.380Z,68.93
2023-04-15T16:10:46.814Z,69.21
2023-04-15T16:15:45.853Z,67.46
2023-04-15T16:20:44.948Z,64.84
2023-04-15T16:25:45.928Z,61.99
2023-04-15T16:30:47.127Z,58.60
2023-04-15T16:35:46.395Z,55.44
2023-04-15T16:40:46.004Z,52.79
2023-04-15T16:45:51.386Z,50.26
2023-04-15T16:50:51.712Z,48.89
2023-04-15T16:55:50.737Z,48.59
2023-04-15T17:00:50.128Z,49.21
2023-04-15T17:05:49.498Z,50.39
2023-04-15T17:10:48.709Z,51.72
2023-04-15T17:15:48.365Z,53.24
2023-04-15T17:20:47.184Z,54.74
2023-04-15T17:25:48.903Z,56.08
2023-04-15T17:30:48.799Z,57.63
2023-04-15T17:35:48.237Z,58.94
2023-04-15T17:40:47.474Z,60.28
2023-04-15T17:45:47.581Z,61.47
2023-04-15T17:50:47.780Z,62.72
2023-04-15T17:55:47.940Z,63.67
2023-04-15T18:00:47.274Z,64.44
2023-04-15T18:05:46.993Z,65.19
2023-04-15T18:10:47.002Z,65.96
2023-04-15T18:15:47.288Z,66.58
2023-04-15T18:20:46.640Z,67.24
2023-04-15T18:25:47.673Z,67.74
2023-04-15T18:30:47.503Z,68.17
2023-04-15T18:35:48.098Z,68.61
2023-04-15T18:40:48.388Z,69.04
2023-04-15T18:45:48.236Z,69.43
2023-04-15T18:50:48.157Z,69.79
2023-04-15T18:55:47.004Z,70.10
2023-04-15T19:00:46.339Z,70.39
2023-04-15T19:05:46.143Z,70.61
2023-04-15T19:10:46.368Z,70.79
2023-04-15T19:15:45.271Z,70.96
2023-04-15T19:20:44.569Z,71.03
2023-04-15T19:25:44.226Z,71.24
2023-04-15T19:30:44.550Z,71.43
2023-04-15T19:35:45.158Z,71.50
2023-04-15T19:40:44.813Z,71.63
2023-04-15T19:45:45.829Z,71.69
2023-04-15T19:50:45.057Z,71.85
2023-04-15T19:55:43.767Z,72.03
2023-04-15T20:00:43.670Z,72.19
2023-04-15T20:05:43.554Z,72.33
2023-04-15T20:10:43.145Z,72.49
2023-04-15T20:15:42.116Z,72.65
2023-04-15T20:20:42.913Z,72.71
2023-04-15T20:25:43.307Z,72.81
2023-04-15T20:30:43.469Z,72.93
2023-04-15T20:35:42.225Z,73.10
2023-04-15T20:40:42.988Z,73.21
2023-04-15T20:45:42.331Z,73.36
2023-04-15T20:50:41.861Z,73.49
2023-04-15T20:55:43.543Z,73.68
2023-04-15T21:00:43.176Z,73.82
2023-04-15T21:05:42.750Z,73.91
2023-04-15T21:10:42.337Z,74.01
2023-04-15T21:15:41.971Z,74.13
2023-04-15T21:20:41.079Z,74.27
2023-04-15T21:25:39.850Z,74.30
2023-04-15T21:30:40.730Z,74.35
2023-04-15T21:35:40.776Z,74.45
2023-04-15T21:40:40.933Z,74.58
2023-04-15T21:45:43.157Z,74.60
2023-04-15T21:51:04.729Z,74.68
2023-04-15T21:56:04.398Z,74.70
2023-04-15T22:01:03.410Z,74.78
2023-04-15T22:06:02.487Z,74.91
2023-04-15T22:11:01.425Z,75.18
2023-04-15T22:16:00.293Z,75.29
2023-04-15T22:21:01.730Z,75.36
2023-04-15T22:26:02.448Z,75.40
2023-04-15T22:31:02.506Z,75.50
2023-04-15T22:36:01.535Z,75.57
2023-04-15T22:41:00.908Z,75.61
2023-04-15T22:46:00.575Z,75.74
2023-04-15T22:51:00.183Z,75.87
2023-04-15T22:55:59.782Z,75.87
2023-04-15T23:00:59.543Z,75.94
2023-04-15T23:05:58.517Z,76.00
2023-04-15T23:10:58.029Z,76.01
2023-04-15T23:15:58.025Z,76.10
2023-04-15T23:20:57.731Z,76.11
2023-04-15T23:25:57.344Z,76.17
2023-04-15T23:31:00.228Z,76.22
2023-04-15T23:36:00.225Z,76.32
2023-04-15T23:40:59.776Z,76.43
2023-04-15T23:45:58.774Z,76.53
2023-04-15T23:50:57.595Z,76.63
2023-04-15T23:55:58.955Z,76.71
